sensor_id;sensor_type;location;lat;lon;timestamp;P1;durP1;ratioP1;P2;durP2;ratioP2
43606;SDS011;29197;44.788;10.366;2022-12-16T07:00:19;9.77;;;7.10;;
43606;SDS011;29197;44.788;10.366;2022-12-16T07:03:26;11.23;;;8.00;;
43606;SDS011;29197;44.788;10.366;2022-12-16T07:06:33;11.57;;;7.97;;
43606;SDS011;29197;44.788;10.366;2022-12-16T07:09:40;11.83;;;8.00;;
43606;SDS011;29197;44.788;10.366;2022-12-16T07:12:47;10.80;;;7.47;;
43606;SDS011;29197;44.788;10.366;2022-12-16T07:15:56;10.97;;;7.87;;
43606;SDS011;29197;44.788;10.366;2022-12-16T07:19:14;12.07;;;7.67;;
43606;SDS011;29197;44.788;10.366;2022-12-16T07:22:20;10.17;;;7.37;;
43606;SDS011;29197;44.788;10.366;2022-12-16T07:25:26;9.80;;;7.17;;
43606;SDS011;29197;44.788;10.366;2022-12-16T07:28:33;11.00;;;8.07;;
43606;SDS011;29197;44.788;10.366;2022-12-16T07:31:41;10.73;;;6.53;;
43606;SDS011;29197;44.788;10.366;2022-12-16T07:34:48;13.27;;;7.67;;
43606;SDS011;29197;44.788;10.366;2022-12-16T07:37:54;10.60;;;7.10;;
43606;SDS011;29197;44.788;10.366;2022-12-16T07:41:01;10.67;;;7.60;;
43606;SDS011;29197;44.788;10.366;2022-12-16T07:44:08;10.50;;;7.33;;
43606;SDS011;29197;44.788;10.366;2022-12-16T07:47:16;10.20;;;6.97;;
43606;SDS011;29197;44.788;10.366;2022-12-16T07:50:22;10.57;;;8.03;;
43606;SDS011;29197;44.788;10.366;2022-12-16T07:53:25;12.03;;;7.20;;
43606;SDS011;29197;44.788;10.366;2022-12-16T07:56:32;10.67;;;8.30;;
43606;SDS011;29197;44.788;10.366;2022-12-16T07:59:39;13.03;;;8.13;;
43606;SDS011;29197;44.788;10.366;2022-12-16T08:02:52;9.30;;;7.43;;
43606;SDS011;29197;44.788;10.366;2022-12-16T08:05:59;10.27;;;7.33;;
43606;SDS011;29197;44.788;10.366;2022-12-16T08:09:05;25.90;;;9.03;;
43606;SDS011;29197;44.788;10.366;2022-12-16T08:12:12;12.17;;;8.20;;
43606;SDS011;29197;44.788;10.366;2022-12-16T08:15:19;12.37;;;8.10;;
43606;SDS011;29197;44.788;10.366;2022-12-16T08:18:27;12.03;;;8.30;;
43606;SDS011;29197;44.788;10.366;2022-12-16T08:21:34;12.80;;;8.53;;
43606;SDS011;29197;44.788;10.366;2022-12-16T08:24:41;11.57;;;7.43;;
43606;SDS011;29197;44.788;10.366;2022-12-16T08:27:52;11.57;;;8.17;;
43606;SDS011;29197;44.788;10.366;2022-12-16T08:30:59;10.50;;;7.27;;
43606;SDS011;29197;44.788;10.366;2022-12-16T08:34:08;11.37;;;8.50;;
43606;SDS011;29197;44.788;10.366;2022-12-16T08:37:14;11.90;;;7.60;;
43606;SDS011;29197;44.788;10.366;2022-12-16T08:40:21;12.27;;;7.93;;
43606;SDS011;29197;44.788;10.366;2022-12-16T08:43:29;11.10;;;7.70;;
43606;SDS011;29197;44.788;10.366;2022-12-16T08:46:36;12.53;;;7.63;;
43606;SDS011;29197;44.788;10.366;2022-12-16T08:49:44;11.33;;;7.53;;
43606;SDS011;29197;44.788;10.366;2022-12-16T08:52:52;12.10;;;8.27;;
43606;SDS011;29197;44.788;10.366;2022-12-16T08:55:59;11.33;;;7.33;;
43606;SDS011;29197;44.788;10.366;2022-12-16T08:59:05;11.17;;;7.67;;
43606;SDS011;29197;44.788;10.366;2022-12-16T09:02:11;11.97;;;7.87;;
43606;SDS011;29197;44.788;10.366;2022-12-16T09:05:20;11.17;;;7.47;;
43606;SDS011;29197;44.788;10.366;2022-12-16T09:08:27;10.27;;;7.73;;
43606;SDS011;29197;44.788;10.366;2022-12-16T09:11:34;9.80;;;6.90;;
43606;SDS011;29197;44.788;10.366;2022-12-16T09:14:40;11.47;;;6.77;;
43606;SDS011;29197;44.788;10.366;2022-12-16T09:17:51;10.97;;;7.17;;
43606;SDS011;29197;44.788;10.366;2022-12-16T09:21:00;12.13;;;8.83;;
43606;SDS011;29197;44.788;10.366;2022-12-16T09:24:19;10.57;;;7.53;;
43606;SDS011;29197;44.788;10.366;2022-12-16T09:27:26;11.30;;;7.77;;
43606;SDS011;29197;44.788;10.366;2022-12-16T09:30:32;16.17;;;8.40;;
43606;SDS011;29197;44.788;10.366;2022-12-16T09:33:41;16.10;;;9.20;;
43606;SDS011;29197;44.788;10.366;2022-12-16T09:36:50;20.07;;;9.40;;
43606;SDS011;29197;44.788;10.366;2022-12-16T09:39:56;13.13;;;9.13;;
43606;SDS011;29197;44.788;10.366;2022-12-16T09:43:22;10.47;;;8.00;;
43606;SDS011;29197;44.788;10.366;2022-12-16T09:46:34;12.33;;;8.97;;
43606;SDS011;29197;44.788;10.366;2022-12-16T09:49:52;11.87;;;7.97;;
43606;SDS011;29197;44.788;10.366;2022-12-16T09:53:01;12.40;;;8.17;;
43606;SDS011;29197;44.788;10.366;2022-12-16T09:56:12;14.73;;;8.20;;
43606;SDS011;29197;44.788;10.366;2022-12-16T09:59:21;12.87;;;9.03;;
43606;SDS011;29197;44.788;10.366;2022-12-16T10:02:30;12.57;;;8.60;;
43606;SDS011;29197;44.788;10.366;2022-12-16T10:05:42;14.47;;;8.93;;
43606;SDS011;29197;44.788;10.366;2022-12-16T10:09:00;12.10;;;8.83;;
43606;SDS011;29197;44.788;10.366;2022-12-16T10:12:12;12.30;;;8.83;;
43606;SDS011;29197;44.788;10.366;2022-12-16T10:15:28;12.80;;;9.40;;
43606;SDS011;29197;44.788;10.366;2022-12-16T10:18:40;15.07;;;9.53;;
43606;SDS011;29197;44.788;10.366;2022-12-16T10:21:50;12.07;;;9.27;;
43606;SDS011;29197;44.788;10.366;2022-12-16T10:25:02;13.03;;;8.97;;
43606;SDS011;29197;44.788;10.366;2022-12-16T10:28:14;12.33;;;10.10;;
43606;SDS011;29197;44.788;10.366;2022-12-16T10:31:20;14.07;;;10.07;;
43606;SDS011;29197;44.788;10.366;2022-12-16T10:34:28;13.97;;;10.23;;
43606;SDS011;29197;44.788;10.366;2022-12-16T10:37:36;12.87;;;9.40;;
43606;SDS011;29197;44.788;10.366;2022-12-16T10:40:45;11.30;;;8.73;;
43606;SDS011;29197;44.788;10.366;2022-12-16T10:43:51;12.70;;;9.60;;
43606;SDS011;29197;44.788;10.366;2022-12-16T10:47:00;14.47;;;9.23;;
43606;SDS011;29197;44.788;10.366;2022-12-16T10:50:10;12.33;;;8.77;;
43606;SDS011;29197;44.788;10.366;2022-12-16T10:53:18;10.07;;;8.57;;
43606;SDS011;29197;44.788;10.366;2022-12-16T10:56:46;13.90;;;9.60;;
43606;SDS011;29197;44.788;10.366;2022-12-16T11:00:06;13.07;;;9.27;;
43606;SDS011;29197;44.788;10.366;2022-12-16T11:03:17;13.10;;;8.37;;
43606;SDS011;29197;44.788;10.366;2022-12-16T11:06:26;12.23;;;8.67;;
43606;SDS011;29197;44.788;10.366;2022-12-16T11:09:33;11.33;;;8.93;;
43606;SDS011;29197;44.788;10.366;2022-12-16T11:12:49;11.20;;;8.43;;
43606;SDS011;29197;44.788;10.366;2022-12-16T11:16:04;11.03;;;8.17;;
43606;SDS011;29197;44.788;10.366;2022-12-16T11:19:17;12.53;;;8.30;;
43606;SDS011;29197;44.788;10.366;2022-12-16T11:22:24;12.87;;;8.83;;
43606;SDS011;29197;44.788;10.366;2022-12-16T11:25:31;12.67;;;8.43;;
43606;SDS011;29197;44.788;10.366;2022-12-16T11:28:40;12.10;;;8.37;;
43606;SDS011;29197;44.788;10.366;2022-12-16T11:31:47;11.07;;;7.87;;
43606;SDS011;29197;44.788;10.366;2022-12-16T11:34:55;10.73;;;8.37;;
43606;SDS011;29197;44.788;10.366;2022-12-16T11:38:04;11.40;;;8.33;;
43606;SDS011;29197;44.788;10.366;2022-12-16T11:41:21;14.00;;;8.07;;
43606;SDS011;29197;44.788;10.366;2022-12-16T11:44:32;14.17;;;8.63;;
43606;SDS011;29197;44.788;10.366;2022-12-16T11:47:40;10.73;;;7.83;;
43606;SDS011;29197;44.788;10.366;2022-12-16T11:50:49;13.63;;;9.43;;
43606;SDS011;29197;44.788;10.366;2022-12-16T11:53:57;11.73;;;8.23;;
43606;SDS011;29197;44.788;10.366;2022-12-16T11:57:04;12.43;;;8.43;;
43606;SDS011;29197;44.788;10.366;2022-12-16T12:00:14;13.90;;;9.37;;
43606;SDS011;29197;44.788;10.366;2022-12-16T12:03:21;14.53;;;9.47;;
43606;SDS011;29197;44.788;10.366;2022-12-16T12:06:31;13.83;;;9.43;;
43606;SDS011;29197;44.788;10.366;2022-12-16T12:09:43;11.43;;;8.30;;
43606;SDS011;29197;44.788;10.366;2022-12-16T12:12:55;13.17;;;9.53;;
43606;SDS011;29197;44.788;10.366;2022-12-16T12:16:07;15.33;;;9.70;;
43606;SDS011;29197;44.788;10.366;2022-12-16T12:19:16;15.17;;;10.30;;
43606;SDS011;29197;44.788;10.366;2022-12-16T12:22:32;15.67;;;10.37;;
43606;SDS011;29197;44.788;10.366;2022-12-16T12:25:42;12.77;;;9.60;;
43606;SDS011;29197;44.788;10.366;2022-12-16T12:28:55;15.90;;;10.63;;
43606;SDS011;29197;44.788;10.366;2022-12-16T12:32:14;16.13;;;10.03;;
43606;SDS011;29197;44.788;10.366;2022-12-16T12:35:34;17.37;;;10.43;;
43606;SDS011;29197;44.788;10.366;2022-12-16T12:38:51;13.40;;;9.33;;
43606;SDS011;29197;44.788;10.366;2022-12-16T12:42:10;13.97;;;9.33;;
43606;SDS011;29197;44.788;10.366;2022-12-16T12:45:36;16.43;;;10.13;;
43606;SDS011;29197;44.788;10.366;2022-12-16T12:48:53;13.13;;;8.50;;
43606;SDS011;29197;44.788;10.366;2022-12-16T12:52:09;18.53;;;10.30;;
43606;SDS011;29197;44.788;10.366;2022-12-16T12:55:24;13.43;;;9.97;;
43606;SDS011;29197;44.788;10.366;2022-12-16T12:58:41;12.23;;;9.30;;
43606;SDS011;29197;44.788;10.366;2022-12-16T13:01:49;13.13;;;9.40;;
43606;SDS011;29197;44.788;10.366;2022-12-16T13:05:00;13.33;;;9.27;;
43606;SDS011;29197;44.788;10.366;2022-12-16T13:12:18;13.70;;;9.67;;
43606;SDS011;29197;44.788;10.366;2022-12-16T13:15:40;17.43;;;9.40;;
43606;SDS011;29197;44.788;10.366;2022-12-16T13:18:47;14.83;;;9.17;;
43606;SDS011;29197;44.788;10.366;2022-12-16T13:22:26;13.40;;;10.07;;
43606;SDS011;29197;44.788;10.366;2022-12-16T13:25:38;14.67;;;10.50;;
43606;SDS011;29197;44.788;10.366;2022-12-16T13:29:02;14.73;;;9.93;;
43606;SDS011;29197;44.788;10.366;2022-12-16T13:32:20;17.77;;;10.97;;
43606;SDS011;29197;44.788;10.366;2022-12-16T13:35:28;16.70;;;10.47;;
43606;SDS011;29197;44.788;10.366;2022-12-16T13:38:38;14.47;;;9.90;;
43606;SDS011;29197;44.788;10.366;2022-12-16T13:41:53;14.93;;;10.73;;
43606;SDS011;29197;44.788;10.366;2022-12-16T13:45:14;13.63;;;10.67;;
43606;SDS011;29197;44.788;10.366;2022-12-16T13:48:33;14.87;;;10.73;;
43606;SDS011;29197;44.788;10.366;2022-12-16T13:55:22;16.07;;;10.90;;
43606;SDS011;29197;44.788;10.366;2022-12-16T13:58:33;14.93;;;10.43;;
43606;SDS011;29197;44.788;10.366;2022-12-16T14:01:43;15.83;;;9.87;;
43606;SDS011;29197;44.788;10.366;2022-12-16T14:05:02;14.60;;;9.73;;
43606;SDS011;29197;44.788;10.366;2022-12-16T14:08:18;14.07;;;10.27;;
43606;SDS011;29197;44.788;10.366;2022-12-16T14:11:29;16.63;;;11.03;;
43606;SDS011;29197;44.788;10.366;2022-12-16T14:14:50;15.90;;;11.17;;
43606;SDS011;29197;44.788;10.366;2022-12-16T14:18:03;14.33;;;11.10;;
43606;SDS011;29197;44.788;10.366;2022-12-16T14:21:19;14.47;;;9.80;;
43606;SDS011;29197;44.788;10.366;2022-12-16T14:24:31;17.47;;;11.47;;
43606;SDS011;29197;44.788;10.366;2022-12-16T14:27:43;19.57;;;12.73;;
43606;SDS011;29197;44.788;10.366;2022-12-16T14:30:52;16.37;;;11.93;;
43606;SDS011;29197;44.788;10.366;2022-12-16T14:34:10;17.17;;;11.87;;
43606;SDS011;29197;44.788;10.366;2022-12-16T14:37:20;20.17;;;12.27;;
43606;SDS011;29197;44.788;10.366;2022-12-16T14:40:29;16.17;;;11.57;;
43606;SDS011;29197;44.788;10.366;2022-12-16T14:43:38;15.10;;;10.77;;
43606;SDS011;29197;44.788;10.366;2022-12-16T14:46:48;14.70;;;9.90;;
43606;SDS011;29197;44.788;10.366;2022-12-16T14:49:55;17.57;;;12.47;;
43606;SDS011;29197;44.788;10.366;2022-12-16T14:53:15;16.37;;;11.23;;
43606;SDS011;29197;44.788;10.366;2022-12-16T14:56:23;17.83;;;12.10;;
43606;SDS011;29197;44.788;10.366;2022-12-16T14:59:31;17.03;;;11.10;;
43606;SDS011;29197;44.788;10.366;2022-12-16T15:02:37;15.60;;;11.40;;
43606;SDS011;29197;44.788;10.366;2022-12-16T15:05:49;14.33;;;9.83;;
43606;SDS011;29197;44.788;10.366;2022-12-16T15:08:57;16.73;;;10.57;;
43606;SDS011;29197;44.788;10.366;2022-12-16T15:12:07;14.67;;;10.07;;
43606;SDS011;29197;44.788;10.366;2022-12-16T15:15:18;16.80;;;9.83;;
43606;SDS011;29197;44.788;10.366;2022-12-16T15:18:31;14.53;;;10.57;;
43606;SDS011;29197;44.788;10.366;2022-12-16T15:21:39;12.30;;;9.77;;
43606;SDS011;29197;44.788;10.366;2022-12-16T15:24:46;15.67;;;10.07;;
43606;SDS011;29197;44.788;10.366;2022-12-16T15:27:53;15.80;;;10.30;;
43606;SDS011;29197;44.788;10.366;2022-12-16T15:31:02;14.60;;;10.03;;
43606;SDS011;29197;44.788;10.366;2022-12-16T15:34:22;14.67;;;10.07;;
43606;SDS011;29197;44.788;10.366;2022-12-16T15:37:34;14.47;;;9.77;;
43606;SDS011;29197;44.788;10.366;2022-12-16T15:40:49;14.00;;;9.83;;
43606;SDS011;29197;44.788;10.366;2022-12-16T15:43:56;13.93;;;9.33;;
43606;SDS011;29197;44.788;10.366;2022-12-16T15:47:04;15.93;;;9.90;;
43606;SDS011;29197;44.788;10.366;2022-12-16T15:50:11;15.43;;;9.40;;
43606;SDS011;29197;44.788;10.366;2022-12-16T15:53:28;12.20;;;9.47;;
43606;SDS011;29197;44.788;10.366;2022-12-16T15:56:40;13.40;;;9.30;;
43606;SDS011;29197;44.788;10.366;2022-12-16T15:59:53;15.77;;;10.03;;
43606;SDS011;29197;44.788;10.366;2022-12-16T16:03:03;10.67;;;8.17;;
43606;SDS011;29197;44.788;10.366;2022-12-16T16:06:13;12.53;;;10.23;;
43606;SDS011;29197;44.788;10.366;2022-12-16T16:09:23;16.73;;;10.37;;
43606;SDS011;29197;44.788;10.366;2022-12-16T16:12:30;15.63;;;10.73;;
43606;SDS011;29197;44.788;10.366;2022-12-16T16:15:36;17.03;;;10.17;;
43606;SDS011;29197;44.788;10.366;2022-12-16T16:18:44;15.97;;;11.17;;
43606;SDS011;29197;44.788;10.366;2022-12-16T16:21:50;14.60;;;10.47;;
43606;SDS011;29197;44.788;10.366;2022-12-16T16:24:56;13.63;;;9.40;;
43606;SDS011;29197;44.788;10.366;2022-12-16T16:28:03;17.23;;;11.60;;
43606;SDS011;29197;44.788;10.366;2022-12-16T16:31:09;15.17;;;10.80;;
43606;SDS011;29197;44.788;10.366;2022-12-16T16:34:17;15.07;;;10.80;;
43606;SDS011;29197;44.788;10.366;2022-12-16T16:37:24;13.83;;;10.63;;
43606;SDS011;29197;44.788;10.366;2022-12-16T16:40:32;12.50;;;9.33;;
43606;SDS011;29197;44.788;10.366;2022-12-16T16:43:39;14.20;;;9.57;;
43606;SDS011;29197;44.788;10.366;2022-12-16T16:46:46;14.83;;;10.10;;
43606;SDS011;29197;44.788;10.366;2022-12-16T16:49:54;14.93;;;10.33;;
43606;SDS011;29197;44.788;10.366;2022-12-16T16:53:09;11.63;;;9.30;;
43606;SDS011;29197;44.788;10.366;2022-12-16T16:56:19;14.23;;;10.00;;
43606;SDS011;29197;44.788;10.366;2022-12-16T16:59:25;13.33;;;9.90;;
43606;SDS011;29197;44.788;10.366;2022-12-16T17:02:32;15.00;;;9.80;;
43606;SDS011;29197;44.788;10.366;2022-12-16T17:05:46;15.07;;;10.90;;
43606;SDS011;29197;44.788;10.366;2022-12-16T17:08:52;12.43;;;8.90;;
43606;SDS011;29197;44.788;10.366;2022-12-16T17:11:58;14.40;;;10.00;;
43606;SDS011;29197;44.788;10.366;2022-12-16T17:15:11;12.20;;;9.40;;
43606;SDS011;29197;44.788;10.366;2022-12-16T17:18:19;14.70;;;9.90;;
43606;SDS011;29197;44.788;10.366;2022-12-16T17:21:33;14.43;;;9.77;;
43606;SDS011;29197;44.788;10.366;2022-12-16T17:24:40;18.87;;;9.90;;
43606;SDS011;29197;44.788;10.366;2022-12-16T17:27:46;13.63;;;9.80;;
43606;SDS011;29197;44.788;10.366;2022-12-16T17:30:52;11.90;;;8.90;;
43606;SDS011;29197;44.788;10.366;2022-12-16T17:33:58;11.47;;;8.97;;
43606;SDS011;29197;44.788;10.366;2022-12-16T17:37:06;11.93;;;9.00;;
43606;SDS011;29197;44.788;10.366;2022-12-16T17:40:13;13.03;;;9.67;;
43606;SDS011;29197;44.788;10.366;2022-12-16T17:43:19;11.63;;;9.10;;
43606;SDS011;29197;44.788;10.366;2022-12-16T17:46:26;10.63;;;8.00;;
43606;SDS011;29197;44.788;10.366;2022-12-16T17:49:32;14.37;;;9.20;;
43606;SDS011;29197;44.788;10.366;2022-12-16T17:52:40;11.47;;;8.83;;
43606;SDS011;29197;44.788;10.366;2022-12-16T17:55:46;11.90;;;8.57;;
43606;SDS011;29197;44.788;10.366;2022-12-16T17:59:01;15.57;;;9.30;;
43606;SDS011;29197;44.788;10.366;2022-12-16T18:02:07;12.67;;;8.90;;
43606;SDS011;29197;44.788;10.366;2022-12-16T18:05:32;15.07;;;9.47;;
43606;SDS011;29197;44.788;10.366;2022-12-16T18:08:40;12.77;;;9.13;;
43606;SDS011;29197;44.788;10.366;2022-12-16T18:11:51;12.97;;;9.80;;
43606;SDS011;29197;44.788;10.366;2022-12-16T18:14:58;12.67;;;8.70;;
43606;SDS011;29197;44.788;10.366;2022-12-16T18:18:04;11.93;;;9.20;;
43606;SDS011;29197;44.788;10.366;2022-12-16T18:21:16;11.80;;;8.87;;
43606;SDS011;29197;44.788;10.366;2022-12-16T18:24:23;16.70;;;10.10;;
43606;SDS011;29197;44.788;10.366;2022-12-16T18:27:34;15.00;;;9.47;;
43606;SDS011;29197;44.788;10.366;2022-12-16T18:30:40;13.03;;;9.57;;
43606;SDS011;29197;44.788;10.366;2022-12-16T18:33:47;13.70;;;9.80;;
43606;SDS011;29197;44.788;10.366;2022-12-16T18:36:54;15.77;;;9.23;;
43606;SDS011;29197;44.788;10.366;2022-12-16T18:40:02;14.30;;;10.17;;
43606;SDS011;29197;44.788;10.366;2022-12-16T18:43:09;16.03;;;10.60;;
43606;SDS011;29197;44.788;10.366;2022-12-16T18:46:16;14.97;;;10.47;;
43606;SDS011;29197;44.788;10.366;2022-12-16T18:49:22;15.17;;;10.83;;
43606;SDS011;29197;44.788;10.366;2022-12-16T18:52:34;17.20;;;11.27;;
43606;SDS011;29197;44.788;10.366;2022-12-16T18:55:42;12.47;;;9.97;;
43606;SDS011;29197;44.788;10.366;2022-12-16T18:58:48;14.13;;;10.17;;
43606;SDS011;29197;44.788;10.366;2022-12-16T19:01:55;16.53;;;11.80;;
43606;SDS011;29197;44.788;10.366;2022-12-16T19:05:02;15.53;;;10.77;;
43606;SDS011;29197;44.788;10.366;2022-12-16T19:08:22;15.00;;;10.40;;
43606;SDS011;29197;44.788;10.366;2022-12-16T19:11:30;13.80;;;11.33;;
43606;SDS011;29197;44.788;10.366;2022-12-16T19:14:36;19.70;;;11.30;;
43606;SDS011;29197;44.788;10.366;2022-12-16T19:17:43;19.23;;;12.73;;
43606;SDS011;29197;44.788;10.366;2022-12-16T19:20:50;24.00;;;14.17;;
43606;SDS011;29197;44.788;10.366;2022-12-16T19:23:58;17.17;;;12.33;;
43606;SDS011;29197;44.788;10.366;2022-12-16T19:27:06;17.23;;;12.13;;
43606;SDS011;29197;44.788;10.366;2022-12-16T19:30:13;17.70;;;11.87;;
43606;SDS011;29197;44.788;10.366;2022-12-16T19:33:18;17.83;;;12.40;;
43606;SDS011;29197;44.788;10.366;2022-12-16T19:36:25;25.53;;;13.50;;
43606;SDS011;29197;44.788;10.366;2022-12-16T19:39:32;18.20;;;13.33;;
43606;SDS011;29197;44.788;10.366;2022-12-16T19:42:40;18.63;;;13.23;;
43606;SDS011;29197;44.788;10.366;2022-12-16T19:45:51;22.70;;;12.47;;
43606;SDS011;29197;44.788;10.366;2022-12-16T19:48:57;17.10;;;13.00;;
43606;SDS011;29197;44.788;10.366;2022-12-16T19:52:00;25.57;;;15.83;;
43606;SDS011;29197;44.788;10.366;2022-12-16T19:55:07;18.10;;;12.80;;
43606;SDS011;29197;44.788;10.366;2022-12-16T19:58:18;17.20;;;12.63;;
43606;SDS011;29197;44.788;10.366;2022-12-16T20:01:24;18.40;;;12.33;;
43606;SDS011;29197;44.788;10.366;2022-12-16T20:04:31;21.23;;;13.17;;
43606;SDS011;29197;44.788;10.366;2022-12-16T20:07:42;21.93;;;14.40;;
43606;SDS011;29197;44.788;10.366;2022-12-16T20:10:48;20.57;;;12.37;;
43606;SDS011;29197;44.788;10.366;2022-12-16T20:13:56;15.40;;;11.30;;
43606;SDS011;29197;44.788;10.366;2022-12-16T20:17:02;21.33;;;13.53;;
43606;SDS011;29197;44.788;10.366;2022-12-16T20:20:09;20.67;;;12.57;;
43606;SDS011;29197;44.788;10.366;2022-12-16T20:23:16;18.10;;;11.93;;
43606;SDS011;29197;44.788;10.366;2022-12-16T20:26:23;19.70;;;12.80;;
43606;SDS011;29197;44.788;10.366;2022-12-16T20:29:31;23.23;;;13.50;;
43606;SDS011;29197;44.788;10.366;2022-12-16T20:32:37;18.10;;;11.90;;
43606;SDS011;29197;44.788;10.366;2022-12-16T20:35:53;26.03;;;15.90;;
43606;SDS011;29197;44.788;10.366;2022-12-16T20:39:00;23.63;;;15.73;;
43606;SDS011;29197;44.788;10.366;2022-12-16T20:42:07;34.40;;;19.37;;
43606;SDS011;29197;44.788;10.366;2022-12-16T20:45:15;19.37;;;13.43;;
43606;SDS011;29197;44.788;10.366;2022-12-16T20:48:22;19.03;;;12.53;;
43606;SDS011;29197;44.788;10.366;2022-12-16T20:51:28;17.67;;;12.47;;
43606;SDS011;29197;44.788;10.366;2022-12-16T20:54:35;17.50;;;12.77;;
43606;SDS011;29197;44.788;10.366;2022-12-16T20:57:41;16.20;;;11.50;;
43606;SDS011;29197;44.788;10.366;2022-12-16T21:00:51;18.07;;;11.87;;
43606;SDS011;29197;44.788;10.366;2022-12-16T21:03:58;17.97;;;11.70;;
43606;SDS011;29197;44.788;10.366;2022-12-16T21:07:04;18.20;;;11.57;;
43606;SDS011;29197;44.788;10.366;2022-12-16T21:10:17;18.63;;;13.50;;
43606;SDS011;29197;44.788;10.366;2022-12-16T21:13:24;20.03;;;13.80;;
43606;SDS011;29197;44.788;10.366;2022-12-16T21:16:33;18.13;;;13.30;;
43606;SDS011;29197;44.788;10.366;2022-12-16T21:19:41;18.80;;;13.00;;
43606;SDS011;29197;44.788;10.366;2022-12-16T21:22:48;20.63;;;13.83;;
43606;SDS011;29197;44.788;10.366;2022-12-16T21:25:57;21.70;;;13.20;;
43606;SDS011;29197;44.788;10.366;2022-12-16T21:29:03;20.87;;;13.73;;
43606;SDS011;29197;44.788;10.366;2022-12-16T21:32:11;23.00;;;14.93;;
43606;SDS011;29197;44.788;10.366;2022-12-16T21:35:18;21.43;;;14.47;;
43606;SDS011;29197;44.788;10.366;2022-12-16T21:38:24;23.00;;;13.53;;
43606;SDS011;29197;44.788;10.366;2022-12-16T21:41:31;18.50;;;12.73;;
43606;SDS011;29197;44.788;10.366;2022-12-16T21:44:39;18.07;;;12.67;;
43606;SDS011;29197;44.788;10.366;2022-12-16T21:47:50;22.50;;;14.93;;
43606;SDS011;29197;44.788;10.366;2022-12-16T21:50:57;18.37;;;12.80;;
43606;SDS011;29197;44.788;10.366;2022-12-16T21:54:04;18.97;;;13.33;;
43606;SDS011;29197;44.788;10.366;2022-12-16T21:57:11;18.03;;;13.20;;
43606;SDS011;29197;44.788;10.366;2022-12-16T22:00:17;19.00;;;13.07;;
43606;SDS011;29197;44.788;10.366;2022-12-16T22:03:26;19.67;;;13.63;;
43606;SDS011;29197;44.788;10.366;2022-12-16T22:06:39;17.80;;;11.90;;
43606;SDS011;29197;44.788;10.366;2022-12-16T22:09:45;17.47;;;12.93;;
43606;SDS011;29197;44.788;10.366;2022-12-16T22:12:52;20.50;;;13.30;;
43606;SDS011;29197;44.788;10.366;2022-12-16T22:15:58;17.93;;;13.13;;
43606;SDS011;29197;44.788;10.366;2022-12-16T22:19:06;19.23;;;13.40;;
43606;SDS011;29197;44.788;10.366;2022-12-16T22:22:19;22.13;;;14.70;;
43606;SDS011;29197;44.788;10.366;2022-12-16T22:25:25;22.63;;;14.87;;
43606;SDS011;29197;44.788;10.366;2022-12-16T22:28:31;23.07;;;15.00;;
43606;SDS011;29197;44.788;10.366;2022-12-16T22:31:40;19.73;;;13.20;;
43606;SDS011;29197;44.788;10.366;2022-12-16T22:34:48;23.27;;;14.80;;
43606;SDS011;29197;44.788;10.366;2022-12-16T22:37:55;20.67;;;12.97;;
43606;SDS011;29197;44.788;10.366;2022-12-16T22:41:01;19.70;;;13.67;;
43606;SDS011;29197;44.788;10.366;2022-12-16T22:44:08;18.60;;;13.30;;
43606;SDS011;29197;44.788;10.366;2022-12-16T22:47:15;22.47;;;13.77;;
43606;SDS011;29197;44.788;10.366;2022-12-16T22:50:19;17.00;;;11.90;;
43606;SDS011;29197;44.788;10.366;2022-12-16T22:53:26;20.27;;;12.53;;
43606;SDS011;29197;44.788;10.366;2022-12-16T22:56:33;18.87;;;13.53;;
43606;SDS011;29197;44.788;10.366;2022-12-16T22:59:42;20.40;;;13.33;;
43606;SDS011;29197;44.788;10.366;2022-12-16T23:02:49;17.87;;;12.53;;
43606;SDS011;29197;44.788;10.366;2022-12-16T23:05:57;17.00;;;12.47;;
43606;SDS011;29197;44.788;10.366;2022-12-16T23:09:03;16.20;;;11.93;;
43606;SDS011;29197;44.788;10.366;2022-12-16T23:12:10;19.90;;;13.13;;
43606;SDS011;29197;44.788;10.366;2022-12-16T23:15:22;17.80;;;12.00;;
43606;SDS011;29197;44.788;10.366;2022-12-16T23:18:28;21.07;;;14.33;;
43606;SDS011;29197;44.788;10.366;2022-12-16T23:21:51;21.23;;;13.27;;
43606;SDS011;29197;44.788;10.366;2022-12-16T23:24:57;16.93;;;12.37;;
43606;SDS011;29197;44.788;10.366;2022-12-16T23:28:04;18.33;;;13.37;;
43606;SDS011;29197;44.788;10.366;2022-12-16T23:31:10;19.53;;;12.87;;
43606;SDS011;29197;44.788;10.366;2022-12-16T23:34:16;18.50;;;13.60;;
43606;SDS011;29197;44.788;10.366;2022-12-16T23:37:32;19.20;;;13.00;;
43606;SDS011;29197;44.788;10.366;2022-12-16T23:40:41;19.67;;;13.33;;
43606;SDS011;29197;44.788;10.366;2022-12-16T23:43:48;21.27;;;13.13;;
43606;SDS011;29197;44.788;10.366;2022-12-16T23:46:55;18.33;;;12.63;;
43606;SDS011;29197;44.788;10.366;2022-12-16T23:50:01;18.13;;;12.10;;
43606;SDS011;29197;44.788;10.366;2022-12-16T23:53:09;16.00;;;11.40;;
43606;SDS011;29197;44.788;10.366;2022-12-16T23:56:16;17.37;;;11.83;;
43606;SDS011;29197;44.788;10.366;2022-12-16T23:59:22;17.13;;;11.57;;
